Terminal Aerodrome Forecast
Issued by NWS

Home | Current Version | Previous Version | Text Only | Print | Product List | Glossary Off
Versions: 1 2 3 4 5 6 7 8 9 10 11 12 13 14 15 16

000
FTUS43 KMPX 231737
TAFRWF
TAF
KRWF 231737Z 2318/2418 15015G25KT P6SM VCSH OVC030
     FM231900 15015G23KT P6SM VCSH OVC015
     FM240000 14009KT 5SM -SHRA OVC008
     FM240300 12006KT 4SM -SHRA BR OVC008
     FM240600 09005KT 1SM SHRA BR OVC008
     FM240900 05006KT 2SM SHRA BR OVC003
     FM241100 02008KT 2SM SHRA OVC008=

USA.gov is the U.S. government's official web portal to all federal, state and local government web resources and services.